Time;durP1;ratioP1;P1;durP2;ratioP2;P2;SDS_P1;SDS_P2;PMS_P1;PMS_P2;Temp;Humidity;BMP_temperature;BMP_pressure;BME280_temperature;BME280_humidity;BME280_pressure;Samples;Min_cycle;Max_cycle;Signal;HPM_P1;HPM_P2
2023/03/28 00:01:11;;;;;;;9.30;2.95;;;;;;;;;;5059386;28;20181;-76
2023/03/28 00:03:38;;;;;;;7.22;2.70;;;;;;;;;;5060252;28;20551;-76
2023/03/28 00:06:08;;;;;;;8.30;3.33;;;;;;;;;;5059728;28;20248;-76
2023/03/28 00:08:35;;;;;;;4.47;3.20;;;;;;;;;;5059789;28;20177;-76
2023/03/28 00:11:09;;;;;;;4.05;2.30;;;;;;;;;;5060021;28;20656;-76
2023/03/28 00:13:35;;;;;;;14.18;3.00;;;;;;;;;;5060013;28;20625;-76
2023/03/28 00:16:06;;;;;;;7.03;2.75;;;;;;;;;;5059934;28;20192;-76
2023/03/28 00:18:37;;;;;;;10.35;3.20;;;;;;;;;;5059185;28;20189;-76
2023/03/28 00:21:04;;;;;;;4.53;2.65;;;;;;;;;;5059982;28;20272;-76
2023/03/28 00:23:30;;;;;;;4.07;2.45;;;;;;;;;;5059961;28;20186;-76
2023/03/28 00:25:56;;;;;;;4.83;2.73;;;;;;;;;;5059573;28;20247;-76
2023/03/28 00:28:22;;;;;;;11.00;2.53;;;;;;;;;;5059903;28;20908;-77
2023/03/28 00:30:48;;;;;;;14.73;3.30;;;;;;;;;;5058936;28;20231;-76
2023/03/28 00:33:14;;;;;;;9.57;3.23;;;;;;;;;;5060189;28;20573;-76
2023/03/28 00:35:40;;;;;;;9.65;3.80;;;;;;;;;;5059944;28;20427;-76
2023/03/28 00:38:06;;;;;;;6.23;3.53;;;;;;;;;;5060421;28;20185;-76
2023/03/28 00:40:37;;;;;;;7.03;2.83;;;;;;;;;;5059657;28;20935;-76
2023/03/28 00:43:03;;;;;;;8.25;3.50;;;;;;;;;;5060227;28;20502;-76
2023/03/28 00:45:29;;;;;;;4.07;2.42;;;;;;;;;;5059993;28;20201;-76
2023/03/28 00:48:01;;;;;;;6.65;2.60;;;;;;;;;;5059767;28;20182;-76
2023/03/28 00:50:31;;;;;;;9.98;2.80;;;;;;;;;;5059965;28;20184;-76
2023/03/28 00:53:03;;;;;;;4.65;2.75;;;;;;;;;;5063353;28;20186;-76
2023/03/28 00:55:34;;;;;;;6.82;2.83;;;;;;;;;;5063535;28;20189;-76
2023/03/28 00:58:00;;;;;;;5.10;2.45;;;;;;;;;;5063336;28;20189;-76
2023/03/28 01:00:31;;;;;;;3.15;2.50;;;;;;;;;;5063623;28;20239;-76
2023/03/28 01:03:00;;;;;;;10.60;2.92;;;;;;;;;;5063509;28;20205;-76
2023/03/28 01:05:27;;;;;;;3.60;2.45;;;;;;;;;;5063721;28;20233;-76
2023/03/28 01:07:58;;;;;;;4.65;2.60;;;;;;;;;;5063398;28;20203;-76
2023/03/28 01:10:24;;;;;;;11.15;4.25;;;;;;;;;;5064136;28;20170;-76
2023/03/28 01:12:51;;;;;;;7.60;2.40;;;;;;;;;;5063433;28;20650;-76
2023/03/28 01:15:17;;;;;;;6.40;2.80;;;;;;;;;;5063390;28;20178;-76
2023/03/28 01:17:45;;;;;;;6.78;2.90;;;;;;;;;;5063348;28;20256;-76
2023/03/28 01:20:25;;;;;;;10.88;3.70;;;;;;;;;;5063124;28;20256;-76
2023/03/28 01:22:51;;;;;;;4.45;2.60;;;;;;;;;;5063579;28;20173;-76
2023/03/28 01:25:23;;;;;;;7.18;3.17;;;;;;;;;;5063492;28;20263;-76
2023/03/28 01:28:02;;;;;;;6.20;3.13;;;;;;;;;;5063456;28;20237;-76
2023/03/28 01:30:40;;;;;;;13.43;3.60;;;;;;;;;;5063639;28;20239;-76
2023/03/28 01:33:29;;;;;;;13.13;2.75;;;;;;;;;;5063575;28;20218;-76
2023/03/28 01:36:01;;;;;;;2.85;2.60;;;;;;;;;;5052666;28;20251;-76
2023/03/28 01:38:36;;;;;;;4.00;2.60;;;;;;;;;;5063768;28;20181;-76
2023/03/28 01:41:14;;;;;;;8.20;3.05;;;;;;;;;;5063133;28;20189;-76
2023/03/28 01:43:51;;;;;;;8.13;2.92;;;;;;;;;;5063631;28;20181;-76
2023/03/28 01:46:22;;;;;;;14.88;3.42;;;;;;;;;;5063439;28;20196;-76
2023/03/28 01:49:07;;;;;;;6.30;2.60;;;;;;;;;;5063800;28;20176;-76
2023/03/28 01:51:39;;;;;;;10.05;2.95;;;;;;;;;;5064462;28;20174;-76
2023/03/28 01:54:08;;;;;;;4.75;2.47;;;;;;;;;;5063500;28;20173;-76
2023/03/28 01:56:47;;;;;;;3.88;2.33;;;;;;;;;;5064096;28;20173;-76
2023/03/28 01:59:16;;;;;;;9.63;3.20;;;;;;;;;;5063250;28;20178;-76
2023/03/28 02:01:50;;;;;;;10.80;2.70;;;;;;;;;;5063791;28;20574;-76
2023/03/28 02:04:19;;;;;;;6.78;2.67;;;;;;;;;;5062672;28;20216;-76
2023/03/28 02:06:46;;;;;;;3.80;2.45;;;;;;;;;;5063425;28;20193;-76
2023/03/28 02:09:14;;;;;;;10.32;3.08;;;;;;;;;;5062735;28;20197;-76
2023/03/28 02:11:40;;;;;;;6.50;2.80;;;;;;;;;;5063792;28;20231;-76
2023/03/28 02:14:09;;;;;;;4.90;3.10;;;;;;;;;;5063093;28;20258;-76
2023/03/28 02:16:40;;;;;;;9.75;2.60;;;;;;;;;;5063986;28;20174;-76
2023/03/28 02:19:07;;;;;;;6.22;2.40;;;;;;;;;;5062809;28;20165;-76
2023/03/28 02:21:40;;;;;;;8.90;2.40;;;;;;;;;;5063807;28;20182;-76
2023/03/28 02:24:08;;;;;;;11.88;2.83;;;;;;;;;;5063624;28;20230;-76
2023/03/28 02:26:34;;;;;;;11.25;3.50;;;;;;;;;;5063248;28;20597;-76
2023/03/28 02:29:00;;;;;;;4.28;2.55;;;;;;;;;;5062585;28;20186;-76
2023/03/28 02:31:26;;;;;;;11.20;2.55;;;;;;;;;;5062917;28;20173;-76
2023/03/28 02:33:52;;;;;;;10.63;2.60;;;;;;;;;;5062888;28;20180;-76
2023/03/28 02:36:37;;;;;;;5.68;2.88;;;;;;;;;;5062526;28;20212;-76
2023/03/28 02:39:09;;;;;;;4.97;2.83;;;;;;;;;;5062263;28;20196;-76
2023/03/28 02:41:47;;;;;;;5.97;2.78;;;;;;;;;;5061733;28;20182;-76
2023/03/28 02:44:32;;;;;;;4.55;2.47;;;;;;;;;;5062638;28;20185;-76
2023/03/28 02:47:13;;;;;;;6.22;2.55;;;;;;;;;;5062284;28;20205;-76
2023/03/28 02:49:49;;;;;;;9.80;2.92;;;;;;;;;;5062396;28;20180;-76
2023/03/28 02:52:29;;;;;;;3.33;2.13;;;;;;;;;;5062570;28;20264;-76
2023/03/28 02:55:02;;;;;;;9.35;2.75;;;;;;;;;;5062944;28;20173;-76
2023/03/28 02:57:32;;;;;;;5.78;2.60;;;;;;;;;;5062735;28;20223;-76
2023/03/28 03:00:10;;;;;;;9.18;2.90;;;;;;;;;;5062895;28;20202;-76
2023/03/28 03:02:36;;;;;;;9.20;2.42;;;;;;;;;;5062994;28;20170;-76
2023/03/28 03:05:02;;;;;;;11.95;2.78;;;;;;;;;;5061951;28;20229;-76
2023/03/28 03:07:29;;;;;;;25.08;3.75;;;;;;;;;;5063095;28;20197;-76
2023/03/28 03:09:55;;;;;;;3.35;2.13;;;;;;;;;;5063060;28;20199;-76
2023/03/28 03:12:22;;;;;;;13.25;2.63;;;;;;;;;;5062335;28;20529;-76
2023/03/28 03:14:49;;;;;;;8.50;2.83;;;;;;;;;;5062186;28;20614;-76
2023/03/28 03:17:18;;;;;;;8.02;2.40;;;;;;;;;;5062401;28;20182;-76
2023/03/28 03:19:44;;;;;;;3.75;2.28;;;;;;;;;;5062442;28;20212;-75
2023/03/28 03:22:11;;;;;;;10.20;2.83;;;;;;;;;;5062146;28;20657;-75
2023/03/28 03:24:37;;;;;;;11.95;3.05;;;;;;;;;;5061671;28;20464;-76
2023/03/28 03:27:03;;;;;;;8.25;2.28;;;;;;;;;;5061335;28;20170;-75
2023/03/28 03:29:29;;;;;;;11.25;3.42;;;;;;;;;;5062116;28;20245;-75
2023/03/28 03:31:55;;;;;;;8.65;2.72;;;;;;;;;;5062082;28;20178;-76
2023/03/28 03:34:23;;;;;;;14.27;4.10;;;;;;;;;;5061745;28;20181;-75
2023/03/28 03:36:51;;;;;;;5.50;2.90;;;;;;;;;;5062214;28;20823;-76
2023/03/28 03:39:17;;;;;;;8.90;3.40;;;;;;;;;;5061293;28;20189;-76
2023/03/28 03:41:43;;;;;;;5.93;2.77;;;;;;;;;;5061742;28;20166;-76
2023/03/28 03:44:09;;;;;;;10.57;3.50;;;;;;;;;;5060347;28;20420;-76
2023/03/28 03:46:35;;;;;;;15.75;3.38;;;;;;;;;;5061768;28;20213;-76
2023/03/28 03:49:01;;;;;;;6.33;3.23;;;;;;;;;;5062078;28;20185;-76
2023/03/28 03:51:27;;;;;;;5.00;2.63;;;;;;;;;;5061225;28;20403;-76
2023/03/28 03:53:53;;;;;;;8.43;3.70;;;;;;;;;;5062129;28;20177;-76
2023/03/28 03:56:20;;;;;;;4.25;3.00;;;;;;;;;;5061170;28;20200;-76
2023/03/28 03:58:46;;;;;;;10.02;4.20;;;;;;;;;;5062284;28;20190;-76
2023/03/28 04:01:13;;;;;;;10.85;3.40;;;;;;;;;;5061761;28;20260;-76
2023/03/28 04:03:42;;;;;;;8.85;3.63;;;;;;;;;;5061755;28;20180;-76
2023/03/28 04:06:08;;;;;;;5.45;2.65;;;;;;;;;;5061199;28;20227;-76
2023/03/28 04:08:34;;;;;;;4.20;2.97;;;;;;;;;;5062007;28;20170;-76
2023/03/28 04:11:00;;;;;;;7.57;3.20;;;;;;;;;;5061671;28;20177;-76
2023/03/28 04:13:26;;;;;;;13.07;3.35;;;;;;;;;;5061046;28;20173;-76
2023/03/28 04:15:52;;;;;;;12.20;3.13;;;;;;;;;;5060767;28;20185;-76
2023/03/28 04:18:19;;;;;;;7.20;4.00;;;;;;;;;;5060864;28;20454;-76
2023/03/28 04:20:48;;;;;;;7.10;4.00;;;;;;;;;;5061618;28;20182;-76
2023/03/28 04:23:19;;;;;;;8.35;4.65;;;;;;;;;;5060584;28;20177;-76
2023/03/28 04:25:48;;;;;;;12.15;4.57;;;;;;;;;;5061614;28;20680;-76
2023/03/28 04:28:14;;;;;;;10.10;4.05;;;;;;;;;;5064061;28;20554;-76
2023/03/28 04:30:42;;;;;;;8.38;4.70;;;;;;;;;;5065374;28;20708;-76
2023/03/28 04:33:09;;;;;;;12.95;4.97;;;;;;;;;;5065388;28;20195;-76
2023/03/28 04:35:35;;;;;;;9.70;4.25;;;;;;;;;;5066526;28;20578;-76
2023/03/28 04:38:01;;;;;;;10.10;4.40;;;;;;;;;;5065335;28;20638;-76
2023/03/28 04:40:28;;;;;;;15.07;4.22;;;;;;;;;;5065569;28;20276;-76
2023/03/28 04:42:54;;;;;;;6.45;4.90;;;;;;;;;;5065835;28;20173;-76
2023/03/28 04:45:20;;;;;;;8.88;3.67;;;;;;;;;;5065521;28;20224;-76
2023/03/28 04:47:46;;;;;;;5.75;3.70;;;;;;;;;;5065748;28;20173;-76
2023/03/28 04:50:13;;;;;;;9.60;4.35;;;;;;;;;;5065249;28;20174;-76
2023/03/28 04:52:39;;;;;;;8.00;3.85;;;;;;;;;;5065157;28;20244;-76
2023/03/28 04:55:06;;;;;;;8.63;3.83;;;;;;;;;;5065663;28;20230;-76
2023/03/28 04:57:32;;;;;;;6.70;3.33;;;;;;;;;;5065577;28;20185;-76
2023/03/28 04:59:58;;;;;;;14.73;5.25;;;;;;;;;;5065627;28;20664;-76
2023/03/28 05:02:24;;;;;;;9.73;4.53;;;;;;;;;;5064215;28;20177;-76
2023/03/28 05:04:52;;;;;;;4.87;3.30;;;;;;;;;;5064616;28;20490;-76
2023/03/28 05:07:18;;;;;;;8.63;3.70;;;;;;;;;;5064735;28;20414;-76
2023/03/28 05:09:44;;;;;;;7.60;3.73;;;;;;;;;;5065346;28;20185;-76
2023/03/28 05:12:10;;;;;;;7.77;3.53;;;;;;;;;;5065570;28;20414;-76
2023/03/28 05:14:36;;;;;;;9.80;4.03;;;;;;;;;;5064861;28;20415;-76
2023/03/28 05:17:01;;;;;;;13.67;5.07;;;;;;;;;;5064542;28;20184;-76
2023/03/28 05:19:27;;;;;;;7.60;4.20;;;;;;;;;;5064996;28;20408;-75
2023/03/28 05:21:53;;;;;;;10.27;5.75;;;;;;;;;;5065837;28;20411;-76
2023/03/28 05:24:19;;;;;;;10.55;4.43;;;;;;;;;;5064548;28;20246;-76
2023/03/28 05:26:46;;;;;;;6.57;4.20;;;;;;;;;;5065918;28;20181;-75
2023/03/28 05:29:12;;;;;;;12.18;4.93;;;;;;;;;;5064928;28;20407;-76
2023/03/28 05:31:37;;;;;;;11.83;5.13;;;;;;;;;;5065647;28;20192;-76
2023/03/28 05:34:03;;;;;;;17.52;4.55;;;;;;;;;;5065239;28;20458;-76
2023/03/28 05:36:30;;;;;;;9.50;4.65;;;;;;;;;;5065474;28;20192;-76
2023/03/28 05:38:56;;;;;;;16.08;3.70;;;;;;;;;;5063430;28;20182;-76
2023/03/28 05:41:22;;;;;;;6.97;4.20;;;;;;;;;;5064811;28;20180;-76
2023/03/28 05:43:48;;;;;;;12.82;4.50;;;;;;;;;;5065341;28;20472;-75
2023/03/28 05:46:14;;;;;;;8.87;4.33;;;;;;;;;;5065290;28;20580;-75
2023/03/28 05:48:40;;;;;;;9.85;5.28;;;;;;;;;;5064899;28;20412;-75
2023/03/28 05:51:06;;;;;;;15.75;4.90;;;;;;;;;;5065991;28;20276;-75
2023/03/28 05:53:32;;;;;;;10.27;4.55;;;;;;;;;;5065136;28;20552;-75
2023/03/28 05:55:58;;;;;;;10.13;5.33;;;;;;;;;;5065760;28;20184;-75
2023/03/28 05:58:24;;;;;;;10.17;4.57;;;;;;;;;;5064867;28;20508;-75
2023/03/28 06:00:51;;;;;;;14.25;5.07;;;;;;;;;;5065126;28;20417;-75
2023/03/28 06:03:17;;;;;;;12.77;4.93;;;;;;;;;;5064703;28;20180;-75
2023/03/28 06:05:44;;;;;;;12.60;3.92;;;;;;;;;;5065697;28;20229;-75
2023/03/28 06:08:10;;;;;;;10.70;5.70;;;;;;;;;;5064524;28;20178;-75
2023/03/28 06:10:36;;;;;;;19.40;5.70;;;;;;;;;;5065111;28;20169;-75
2023/03/28 06:13:02;;;;;;;10.27;4.20;;;;;;;;;;5064619;28;20179;-76
2023/03/28 06:15:28;;;;;;;11.07;5.30;;;;;;;;;;5065369;28;20189;-76
2023/03/28 06:17:54;;;;;;;8.27;4.93;;;;;;;;;;5065519;28;20455;-75
2023/03/28 06:20:20;;;;;;;15.48;5.10;;;;;;;;;;5064595;28;20177;-76
2023/03/28 06:22:46;;;;;;;10.70;5.43;;;;;;;;;;5065711;28;20620;-76
2023/03/28 06:25:12;;;;;;;15.13;5.97;;;;;;;;;;5064853;28;20460;-76
2023/03/28 06:27:38;;;;;;;12.32;5.20;;;;;;;;;;5065188;28;20184;-76
2023/03/28 06:30:05;;;;;;;8.85;5.47;;;;;;;;;;5064871;28;20180;-76
2023/03/28 06:32:31;;;;;;;11.52;5.15;;;;;;;;;;5063439;28;20185;-76
2023/03/28 06:34:57;;;;;;;8.33;5.80;;;;;;;;;;5064777;28;20196;-76
2023/03/28 06:37:23;;;;;;;9.73;6.35;;;;;;;;;;5064152;28;20404;-76
2023/03/28 06:39:51;;;;;;;15.97;6.40;;;;;;;;;;5065040;28;20176;-76
2023/03/28 06:42:17;;;;;;;17.67;6.47;;;;;;;;;;5064972;28;20440;-76
2023/03/28 06:44:44;;;;;;;19.40;6.13;;;;;;;;;;5064194;28;20208;-76
2023/03/28 06:47:10;;;;;;;12.02;6.25;;;;;;;;;;5065244;28;20483;-75
2023/03/28 06:49:35;;;;;;;8.85;5.95;;;;;;;;;;5064690;28;20184;-76
2023/03/28 06:52:01;;;;;;;11.50;6.17;;;;;;;;;;5064141;28;20162;-76
2023/03/28 06:54:27;;;;;;;16.00;5.73;;;;;;;;;;5064748;28;20432;-75
2023/03/28 06:56:53;;;;;;;14.23;6.10;;;;;;;;;;5064398;28;20418;-76
2023/03/28 06:59:19;;;;;;;10.48;5.15;;;;;;;;;;5063588;28;20430;-76
2023/03/28 07:01:45;;;;;;;15.77;5.90;;;;;;;;;;5064441;28;20678;-76
2023/03/28 07:04:11;;;;;;;16.83;5.83;;;;;;;;;;5064100;28;20238;-76
2023/03/28 07:06:37;;;;;;;13.20;6.30;;;;;;;;;;5064766;28;20472;-76
2023/03/28 07:09:03;;;;;;;21.70;8.40;;;;;;;;;;5063336;28;20419;-76
2023/03/28 07:11:29;;;;;;;9.15;5.55;;;;;;;;;;5063775;28;20186;-76
2023/03/28 07:13:55;;;;;;;13.07;6.50;;;;;;;;;;5062659;28;20253;-75
2023/03/28 07:16:21;;;;;;;16.73;6.53;;;;;;;;;;5063897;28;20404;-76
2023/03/28 07:18:47;;;;;;;19.52;7.07;;;;;;;;;;5063145;28;20416;-76
2023/03/28 07:21:15;;;;;;;20.52;6.57;;;;;;;;;;5062213;28;20185;-76
2023/03/28 07:23:41;;;;;;;16.48;8.13;;;;;;;;;;5063022;28;20176;-76
2023/03/28 07:26:08;;;;;;;11.95;6.60;;;;;;;;;;5063160;28;20208;-76
2023/03/28 07:28:35;;;;;;;12.88;7.00;;;;;;;;;;5062642;28;20170;-76
2023/03/28 07:31:03;;;;;;;17.08;7.00;;;;;;;;;;5062532;28;20166;-76
2023/03/28 07:33:29;;;;;;;10.35;6.45;;;;;;;;;;5062260;28;20196;-76
2023/03/28 07:35:55;;;;;;;18.33;6.82;;;;;;;;;;5063098;28;20271;-76
2023/03/28 07:38:21;;;;;;;17.10;7.25;;;;;;;;;;5062584;28;20178;-76
2023/03/28 07:40:47;;;;;;;15.27;7.30;;;;;;;;;;5063334;28;20168;-76
2023/03/28 07:43:13;;;;;;;19.07;5.60;;;;;;;;;;5062184;28;20184;-76
2023/03/28 07:45:40;;;;;;;16.60;6.25;;;;;;;;;;5062634;28;20466;-76
2023/03/28 07:48:06;;;;;;;12.82;5.82;;;;;;;;;;5063129;28;20205;-75
2023/03/28 07:50:32;;;;;;;14.15;5.90;;;;;;;;;;5062395;28;20190;-76
2023/03/28 07:52:59;;;;;;;10.70;5.57;;;;;;;;;;5062798;28;20184;-76
2023/03/28 07:55:26;;;;;;;19.45;7.18;;;;;;;;;;5061970;28;20267;-76
2023/03/28 07:57:52;;;;;;;19.35;6.25;;;;;;;;;;5062220;28;20185;-76
2023/03/28 08:00:21;;;;;;;19.50;5.95;;;;;;;;;;5062751;28;20177;-75
2023/03/28 08:02:47;;;;;;;11.82;6.30;;;;;;;;;;5062096;28;20190;-76
2023/03/28 08:05:14;;;;;;;16.38;5.95;;;;;;;;;;5062119;28;20603;-76
2023/03/28 08:07:46;;;;;;;14.73;5.95;;;;;;;;;;5062313;28;20189;-76
2023/03/28 08:10:13;;;;;;;10.32;4.85;;;;;;;;;;5062895;28;20212;-75
2023/03/28 08:12:39;;;;;;;16.33;5.97;;;;;;;;;;5061782;28;20187;-76
2023/03/28 08:15:06;;;;;;;9.40;4.70;;;;;;;;;;5062627;28;20177;-76
2023/03/28 08:17:32;;;;;;;9.68;5.38;;;;;;;;;;5061743;28;20228;-76
2023/03/28 08:19:58;;;;;;;10.80;5.30;;;;;;;;;;5061836;28;20200;-76
2023/03/28 08:22:25;;;;;;;10.05;4.75;;;;;;;;;;5061378;28;20185;-76
2023/03/28 08:24:51;;;;;;;10.30;3.75;;;;;;;;;;5061882;28;20209;-76
2023/03/28 08:27:17;;;;;;;12.77;5.20;;;;;;;;;;5061255;28;20168;-76
2023/03/28 08:29:43;;;;;;;10.35;4.30;;;;;;;;;;5061015;28;20184;-76
2023/03/28 08:32:09;;;;;;;10.60;3.70;;;;;;;;;;5061157;28;20212;-76
2023/03/28 08:34:36;;;;;;;12.85;4.53;;;;;;;;;;5061219;28;20204;-77
2023/03/28 08:37:04;;;;;;;12.82;3.90;;;;;;;;;;5058569;28;20182;-76
2023/03/28 08:39:31;;;;;;;18.73;5.15;;;;;;;;;;5060208;28;20181;-76
2023/03/28 08:42:12;;;;;;;11.38;3.63;;;;;;;;;;5061129;28;20269;-76
2023/03/28 08:44:57;;;;;;;10.68;2.80;;;;;;;;;;5060738;28;20170;-76
2023/03/28 08:47:29;;;;;;;5.03;2.95;;;;;;;;;;5060795;28;20173;-77
2023/03/28 08:49:58;;;;;;;11.05;3.25;;;;;;;;;;5061039;28;20231;-77
2023/03/28 08:52:25;;;;;;;5.90;2.90;;;;;;;;;;5060253;28;20170;-77
2023/03/28 08:54:55;;;;;;;9.40;2.42;;;;;;;;;;5060215;28;20652;-77
2023/03/28 08:57:24;;;;;;;8.50;3.10;;;;;;;;;;5059616;28;20178;-77
2023/03/28 08:59:55;;;;;;;6.30;1.75;;;;;;;;;;5060323;28;20169;-77
2023/03/28 09:02:22;;;;;;;6.13;1.50;;;;;;;;;;5057554;28;20626;-77
2023/03/28 09:04:48;;;;;;;5.80;1.73;;;;;;;;;;5059220;28;20237;-77
2023/03/28 09:07:21;;;;;;;5.22;1.67;;;;;;;;;;5058702;28;20181;-77
2023/03/28 09:10:06;;;;;;;4.82;1.80;;;;;;;;;;5058831;28;20179;-77
2023/03/28 09:12:38;;;;;;;3.33;2.13;;;;;;;;;;5059582;28;20260;-77
2023/03/28 09:15:15;;;;;;;6.80;1.70;;;;;;;;;;5061753;28;20178;-77
2023/03/28 09:17:59;;;;;;;2.75;1.10;;;;;;;;;;5061439;28;20178;-77
2023/03/28 09:20:43;;;;;;;2.35;1.20;;;;;;;;;;5060438;28;20173;-77
2023/03/28 09:23:18;;;;;;;9.05;1.50;;;;;;;;;;5060214;28;20172;-77
2023/03/28 09:25:51;;;;;;;2.50;1.00;;;;;;;;;;5059964;28;20209;-77
2023/03/28 09:28:36;;;;;;;2.67;1.60;;;;;;;;;;5060597;28;20185;-77
2023/03/28 09:31:04;;;;;;;4.45;1.08;;;;;;;;;;5060578;28;20173;-77
2023/03/28 09:33:33;;;;;;;3.30;1.10;;;;;;;;;;5060075;28;20188;-77
2023/03/28 09:35:59;;;;;;;2.33;1.10;;;;;;;;;;5060734;28;20515;-77
2023/03/28 09:38:29;;;;;;;3.50;1.48;;;;;;;;;;5060011;28;20213;-77
2023/03/28 09:40:56;;;;;;;6.87;2.30;;;;;;;;;;5059545;28;20646;-77
2023/03/28 09:43:33;;;;;;;7.40;1.45;;;;;;;;;;5059403;28;20404;-77
2023/03/28 09:46:04;;;;;;;6.20;1.23;;;;;;;;;;5059656;28;20205;-77
2023/03/28 09:48:33;;;;;;;3.00;1.10;;;;;;;;;;5059169;28;20440;-77
2023/03/28 09:50:59;;;;;;;2.40;0.93;;;;;;;;;;5059478;28;20462;-77
2023/03/28 09:53:27;;;;;;;2.00;0.93;;;;;;;;;;5059536;28;20478;-77
2023/03/28 09:55:54;;;;;;;6.20;1.00;;;;;;;;;;5059490;28;20412;-77
2023/03/28 09:58:20;;;;;;;3.65;1.13;;;;;;;;;;5059564;28;20892;-77
2023/03/28 10:00:48;;;;;;;2.30;1.07;;;;;;;;;;5059714;28;20688;-77
2023/03/28 10:03:28;;;;;;;3.53;0.80;;;;;;;;;;5059239;28;20454;-77
2023/03/28 10:05:54;;;;;;;2.72;1.00;;;;;;;;;;5059332;28;20243;-77
2023/03/28 10:08:22;;;;;;;3.25;1.40;;;;;;;;;;5058742;28;20185;-77
2023/03/28 10:11:15;;;;;;;2.22;1.10;;;;;;;;;;5060108;28;20694;-77
2023/03/28 10:13:42;;;;;;;1.75;1.13;;;;;;;;;;5057713;28;20589;-77
2023/03/28 10:16:10;;;;;;;3.80;1.30;;;;;;;;;;5059169;28;20203;-77
2023/03/28 10:18:37;;;;;;;3.05;1.35;;;;;;;;;;5059564;28;20209;-77
2023/03/28 10:21:09;;;;;;;2.35;1.00;;;;;;;;;;5059380;28;20259;-77
2023/03/28 10:23:35;;;;;;;3.20;1.17;;;;;;;;;;5058711;28;20639;-77
2023/03/28 10:26:02;;;;;;;1.85;1.08;;;;;;;;;;5059542;28;20231;-77
2023/03/28 10:28:36;;;;;;;5.50;0.90;;;;;;;;;;5058736;28;20226;-77
2023/03/28 10:31:03;;;;;;;2.30;0.98;;;;;;;;;;5059437;28;20185;-77
2023/03/28 10:33:51;;;;;;;2.30;1.10;;;;;;;;;;5058119;28;20269;-77
2023/03/28 10:36:27;;;;;;;2.58;0.93;;;;;;;;;;5056880;28;20189;-77
2023/03/28 10:38:53;;;;;;;1.98;1.15;;;;;;;;;;5059614;28;20255;-77
2023/03/28 10:41:20;;;;;;;2.70;1.03;;;;;;;;;;5059072;28;20525;-76
2023/03/28 10:43:47;;;;;;;3.00;0.90;;;;;;;;;;5057909;28;20423;-77
2023/03/28 10:46:16;;;;;;;2.03;0.90;;;;;;;;;;5057381;28;20963;-76
2023/03/28 10:48:46;;;;;;;2.42;1.05;;;;;;;;;;5057198;28;20444;-77
2023/03/28 10:51:17;;;;;;;3.17;1.10;;;;;;;;;;5057488;28;20656;-76
2023/03/28 10:53:43;;;;;;;1.35;0.82;;;;;;;;;;5055627;28;20181;-76
2023/03/28 10:56:18;;;;;;;2.87;1.00;;;;;;;;;;5057565;28;20569;-78
2023/03/28 10:58:44;;;;;;;1.73;0.98;;;;;;;;;;5055031;28;20538;-77
2023/03/28 11:01:18;;;;;;;2.45;1.00;;;;;;;;;;5058337;28;20177;-77
2023/03/28 11:03:56;;;;;;;2.65;1.38;;;;;;;;;;5059112;28;20182;-77
2023/03/28 11:06:31;;;;;;;1.30;1.00;;;;;;;;;;5056485;28;20220;-83
2023/03/28 11:09:01;;;;;;;1.40;1.10;;;;;;;;;;5055723;28;20177;-83
2023/03/28 11:11:45;;;;;;;3.95;1.20;;;;;;;;;;5055623;28;20633;-88
2023/03/28 11:14:14;;;;;;;2.55;1.42;;;;;;;;;;5056641;28;20205;-89
2023/03/28 11:16:59;;;;;;;2.45;1.20;;;;;;;;;;5055185;28;20178;-80
2023/03/28 11:19:31;;;;;;;4.47;1.35;;;;;;;;;;5055091;28;20203;-80
2023/03/28 11:22:06;;;;;;;1.52;1.10;;;;;;;;;;5055150;28;20515;-80
2023/03/28 11:24:35;;;;;;;3.08;1.00;;;;;;;;;;5055213;28;20173;-80
2023/03/28 11:27:11;;;;;;;1.77;0.93;;;;;;;;;;5055602;28;20340;-80
2023/03/28 11:29:40;;;;;;;4.13;1.17;;;;;;;;;;5055134;28;20227;-80
2023/03/28 11:32:16;;;;;;;1.80;1.20;;;;;;;;;;5054973;28;20533;-79
2023/03/28 11:35:00;;;;;;;4.00;1.42;;;;;;;;;;5054347;28;20173;-80
2023/03/28 11:37:36;;;;;;;1.73;1.00;;;;;;;;;;5055365;28;20184;-80
2023/03/28 11:40:13;;;;;;;1.95;1.20;;;;;;;;;;5055226;28;20640;-80
2023/03/28 11:42:47;;;;;;;3.47;1.40;;;;;;;;;;5055016;28;20173;-80
2023/03/28 11:45:22;;;;;;;4.18;1.08;;;;;;;;;;5055210;28;20256;-80
2023/03/28 11:47:51;;;;;;;1.67;1.30;;;;;;;;;;5055130;28;20180;-80
2023/03/28 11:50:17;;;;;;;1.95;0.90;;;;;;;;;;5054531;28;20173;-80
2023/03/28 11:53:04;;;;;;;1.80;1.03;;;;;;;;;;5054387;28;20177;-81
2023/03/28 11:55:36;;;;;;;2.07;0.90;;;;;;;;;;5054401;28;20408;-81
2023/03/28 11:58:04;;;;;;;2.13;1.17;;;;;;;;;;5055148;28;20412;-81
2023/03/28 12:00:38;;;;;;;3.57;1.00;;;;;;;;;;5053264;28;20542;-81
2023/03/28 12:03:23;;;;;;;2.37;1.30;;;;;;;;;;5054613;28;20416;-81
2023/03/28 12:06:01;;;;;;;2.30;1.20;;;;;;;;;;5053316;28;20511;-80
2023/03/28 12:08:27;;;;;;;4.20;1.20;;;;;;;;;;5054386;28;20753;-80
2023/03/28 12:10:56;;;;;;;4.17;1.77;;;;;;;;;;5054437;28;20435;-80
2023/03/28 12:13:30;;;;;;;2.90;2.50;;;;;;;;;;5054290;28;20436;-80
2023/03/28 12:16:02;;;;;;;3.53;1.10;;;;;;;;;;5054520;28;20432;-79
2023/03/28 12:18:33;;;;;;;1.20;0.87;;;;;;;;;;5054564;28;20396;-79
2023/03/28 12:21:02;;;;;;;2.40;1.20;;;;;;;;;;5054809;28;20474;-79
2023/03/28 12:23:36;;;;;;;2.73;1.23;;;;;;;;;;5054282;28;20408;-79
2023/03/28 12:26:17;;;;;;;3.70;1.03;;;;;;;;;;5054170;28;20471;-82
2023/03/28 12:28:49;;;;;;;2.00;1.03;;;;;;;;;;5053864;28;20404;-80
2023/03/28 12:31:37;;;;;;;4.53;1.30;;;;;;;;;;5054328;28;20587;-81
2023/03/28 12:34:07;;;;;;;1.67;1.00;;;;;;;;;;5054574;28;20404;-80
2023/03/28 12:36:37;;;;;;;3.83;1.77;;;;;;;;;;5053817;28;20408;-80
2023/03/28 12:39:21;;;;;;;5.60;1.47;;;;;;;;;;5053859;28;20415;-84
2023/03/28 12:41:47;;;;;;;3.10;1.40;;;;;;;;;;5053882;28;20396;-80
2023/03/28 12:44:16;;;;;;;4.33;1.03;;;;;;;;;;5053794;28;20829;-80
2023/03/28 12:46:49;;;;;;;3.07;1.20;;;;;;;;;;5053082;28;20488;-80
2023/03/28 12:49:32;;;;;;;1.67;1.23;;;;;;;;;;5057343;28;20419;-80
2023/03/28 12:52:00;;;;;;;2.03;1.20;;;;;;;;;;5057321;28;20415;-81
2023/03/28 12:54:27;;;;;;;3.30;1.30;;;;;;;;;;5057294;28;20436;-80
2023/03/28 12:57:02;;;;;;;2.77;1.40;;;;;;;;;;5057179;28;20412;-80
2023/03/28 12:59:40;;;;;;;1.80;1.20;;;;;;;;;;5055892;28;20738;-81
2023/03/28 13:02:15;;;;;;;2.80;1.50;;;;;;;;;;5055059;28;20408;-79
2023/03/28 13:04:44;;;;;;;2.57;1.70;;;;;;;;;;5053979;28;20463;-80
2023/03/28 13:07:16;;;;;;;7.70;2.00;;;;;;;;;;5057140;28;20546;-80
2023/03/28 13:09:59;;;;;;;3.43;1.30;;;;;;;;;;5057219;28;20794;-81
2023/03/28 13:12:48;;;;;;;6.63;2.37;;;;;;;;;;5057633;28;20418;-80
2023/03/28 13:15:14;;;;;;;2.57;2.00;;;;;;;;;;5057964;28;20429;-80
2023/03/28 13:18:06;;;;;;;3.63;1.83;;;;;;;;;;5057552;28;20790;-80
2023/03/28 13:20:32;;;;;;;3.80;1.33;;;;;;;;;;5041280;28;20423;-81
2023/03/28 13:23:02;;;;;;;6.07;1.67;;;;;;;;;;5057428;28;20404;-80
2023/03/28 13:25:31;;;;;;;3.13;1.77;;;;;;;;;;5057814;28;20814;-80
2023/03/28 13:27:57;;;;;;;5.73;1.67;;;;;;;;;;5057025;28;20515;-80
2023/03/28 13:30:27;;;;;;;3.03;1.70;;;;;;;;;;5057037;28;20461;-80
2023/03/28 13:33:02;;;;;;;2.40;1.83;;;;;;;;;;5056693;28;20408;-80
2023/03/28 13:35:35;;;;;;;6.47;1.63;;;;;;;;;;5056686;28;20419;-81
2023/03/28 13:38:14;;;;;;;3.37;1.50;;;;;;;;;;5057239;28;20487;-80
2023/03/28 13:40:50;;;;;;;4.80;1.83;;;;;;;;;;5056902;28;20407;-80
2023/03/28 13:43:28;;;;;;;2.97;1.40;;;;;;;;;;5057315;28;20899;-80
2023/03/28 13:46:03;;;;;;;2.50;1.30;;;;;;;;;;5056495;28;21090;-80
2023/03/28 13:48:34;;;;;;;3.50;1.70;;;;;;;;;;5057063;28;20794;-80
2023/03/28 13:51:03;;;;;;;3.80;1.50;;;;;;;;;;5056800;28;20458;-80
2023/03/28 13:53:31;;;;;;;4.30;1.50;;;;;;;;;;5057003;28;20404;-80
2023/03/28 13:56:20;;;;;;;4.00;1.33;;;;;;;;;;5056237;28;20433;-81
2023/03/28 13:58:48;;;;;;;5.53;1.40;;;;;;;;;;5055913;28;20408;-81
2023/03/28 14:01:18;;;;;;;4.53;1.30;;;;;;;;;;5055182;28;20485;-80
2023/03/28 14:03:45;;;;;;;2.43;1.47;;;;;;;;;;5056184;28;20411;-81
2023/03/28 14:06:19;;;;;;;2.63;1.70;;;;;;;;;;5055781;28;20979;-81
2023/03/28 14:08:45;;;;;;;3.43;1.40;;;;;;;;;;5055736;28;20457;-81
2023/03/28 14:11:12;;;;;;;3.47;1.37;;;;;;;;;;5056316;28;20737;-80
2023/03/28 14:13:38;;;;;;;3.93;1.40;;;;;;;;;;5056244;28;20507;-81
2023/03/28 14:16:06;;;;;;;5.30;1.60;;;;;;;;;;5055957;28;20408;-81
2023/03/28 14:18:37;;;;;;;2.77;1.10;;;;;;;;;;5056453;28;20918;-81
2023/03/28 14:21:06;;;;;;;3.20;1.77;;;;;;;;;;5057010;28;20400;-81
2023/03/28 14:23:36;;;;;;;4.33;1.90;;;;;;;;;;5055928;28;20426;-80
2023/03/28 14:26:07;;;;;;;2.30;1.40;;;;;;;;;;5054879;28;20987;-81
2023/03/28 14:28:33;;;;;;;3.43;1.67;;;;;;;;;;5055962;28;20412;-80
2023/03/28 14:31:00;;;;;;;3.97;1.63;;;;;;;;;;5055616;28;20920;-81
2023/03/28 14:33:30;;;;;;;4.63;1.40;;;;;;;;;;5055976;28;20408;-80
2023/03/28 14:35:58;;;;;;;1.70;1.37;;;;;;;;;;5055326;28;20770;-81
2023/03/28 14:38:28;;;;;;;2.50;1.50;;;;;;;;;;5056033;28;20408;-80
2023/03/28 14:40:54;;;;;;;2.80;1.23;;;;;;;;;;5055239;28;20412;-81
2023/03/28 14:43:28;;;;;;;6.60;1.53;;;;;;;;;;5055516;28;20490;-80
2023/03/28 14:45:57;;;;;;;4.33;1.50;;;;;;;;;;5055691;28;20487;-81
2023/03/28 14:48:25;;;;;;;5.43;1.37;;;;;;;;;;5055338;28;20419;-80
2023/03/28 14:50:51;;;;;;;3.53;1.80;;;;;;;;;;5055290;28;20415;-80
2023/03/28 14:53:19;;;;;;;3.90;1.90;;;;;;;;;;5054425;28;20436;-81